sensor_id;sensor_type;location;lat;lon;timestamp;P1;durP1;ratioP1;P2;durP2;ratioP2
19903;SDS011;10114;50.970;4.962;2023-07-13T00:01:40;4.93;;;1.02;;
19903;SDS011;10114;50.970;4.962;2023-07-13T00:04:06;10.45;;;1.65;;
19903;SDS011;10114;50.970;4.962;2023-07-13T00:06:32;6.05;;;1.83;;
19903;SDS011;10114;50.970;4.962;2023-07-13T00:08:58;6.63;;;1.58;;
19903;SDS011;10114;50.970;4.962;2023-07-13T00:11:24;5.95;;;1.60;;
19903;SDS011;10114;50.970;4.962;2023-07-13T00:13:51;4.55;;;1.40;;
19903;SDS011;10114;50.970;4.962;2023-07-13T00:16:17;9.60;;;1.77;;
19903;SDS011;10114;50.970;4.962;2023-07-13T00:18:44;6.80;;;1.40;;
19903;SDS011;10114;50.970;4.962;2023-07-13T00:21:11;9.70;;;1.65;;
19903;SDS011;10114;50.970;4.962;2023-07-13T00:23:38;9.68;;;1.85;;
19903;SDS011;10114;50.970;4.962;2023-07-13T00:26:05;6.88;;;1.67;;
19903;SDS011;10114;50.970;4.962;2023-07-13T00:28:31;6.50;;;1.50;;
19903;SDS011;10114;50.970;4.962;2023-07-13T00:30:57;6.97;;;1.70;;
19903;SDS011;10114;50.970;4.962;2023-07-13T00:33:23;10.63;;;1.75;;
19903;SDS011;10114;50.970;4.962;2023-07-13T00:35:49;5.32;;;1.63;;
19903;SDS011;10114;50.970;4.962;2023-07-13T00:38:16;9.57;;;1.90;;
19903;SDS011;10114;50.970;4.962;2023-07-13T00:40:42;8.73;;;2.08;;
19903;SDS011;10114;50.970;4.962;2023-07-13T00:43:16;9.65;;;1.90;;
19903;SDS011;10114;50.970;4.962;2023-07-13T00:48:09;8.93;;;1.58;;
19903;SDS011;10114;50.970;4.962;2023-07-13T00:50:36;9.50;;;2.17;;
19903;SDS011;10114;50.970;4.962;2023-07-13T00:53:02;7.28;;;1.48;;
19903;SDS011;10114;50.970;4.962;2023-07-13T00:55:29;8.52;;;1.77;;
19903;SDS011;10114;50.970;4.962;2023-07-13T00:57:55;6.03;;;1.38;;
19903;SDS011;10114;50.970;4.962;2023-07-13T01:00:21;9.07;;;1.83;;
19903;SDS011;10114;50.970;4.962;2023-07-13T01:02:48;14.07;;;3.08;;
19903;SDS011;10114;50.970;4.962;2023-07-13T01:05:16;9.02;;;2.30;;
19903;SDS011;10114;50.970;4.962;2023-07-13T01:07:43;8.27;;;1.77;;
19903;SDS011;10114;50.970;4.962;2023-07-13T01:10:10;7.30;;;2.17;;
19903;SDS011;10114;50.970;4.962;2023-07-13T01:12:37;9.20;;;2.42;;
19903;SDS011;10114;50.970;4.962;2023-07-13T01:15:03;6.18;;;1.83;;
19903;SDS011;10114;50.970;4.962;2023-07-13T01:17:31;7.88;;;2.10;;
19903;SDS011;10114;50.970;4.962;2023-07-13T01:19:58;7.45;;;1.88;;
19903;SDS011;10114;50.970;4.962;2023-07-13T01:22:25;9.57;;;2.30;;
19903;SDS011;10114;50.970;4.962;2023-07-13T01:24:52;9.07;;;2.13;;
19903;SDS011;10114;50.970;4.962;2023-07-13T01:27:23;6.35;;;1.77;;
19903;SDS011;10114;50.970;4.962;2023-07-13T01:29:53;9.45;;;2.20;;
19903;SDS011;10114;50.970;4.962;2023-07-13T01:32:28;8.52;;;2.05;;
19903;SDS011;10114;50.970;4.962;2023-07-13T01:34:56;10.70;;;2.45;;
19903;SDS011;10114;50.970;4.962;2023-07-13T01:37:23;15.15;;;2.22;;
19903;SDS011;10114;50.970;4.962;2023-07-13T01:39:49;7.60;;;1.90;;
19903;SDS011;10114;50.970;4.962;2023-07-13T01:42:15;12.15;;;1.88;;
19903;SDS011;10114;50.970;4.962;2023-07-13T01:44:41;7.88;;;2.00;;
19903;SDS011;10114;50.970;4.962;2023-07-13T01:47:07;6.50;;;1.70;;
19903;SDS011;10114;50.970;4.962;2023-07-13T01:49:33;7.25;;;1.77;;
19903;SDS011;10114;50.970;4.962;2023-07-13T01:51:59;9.70;;;2.00;;
19903;SDS011;10114;50.970;4.962;2023-07-13T01:54:25;9.50;;;2.03;;
19903;SDS011;10114;50.970;4.962;2023-07-13T01:56:52;8.02;;;1.92;;
19903;SDS011;10114;50.970;4.962;2023-07-13T01:59:18;9.15;;;2.00;;
19903;SDS011;10114;50.970;4.962;2023-07-13T02:01:44;4.65;;;1.58;;
19903;SDS011;10114;50.970;4.962;2023-07-13T02:04:10;7.95;;;2.05;;
19903;SDS011;10114;50.970;4.962;2023-07-13T02:06:36;11.80;;;2.15;;
19903;SDS011;10114;50.970;4.962;2023-07-13T02:09:02;12.23;;;2.35;;
19903;SDS011;10114;50.970;4.962;2023-07-13T02:11:28;8.98;;;2.03;;
19903;SDS011;10114;50.970;4.962;2023-07-13T02:13:58;11.27;;;3.13;;
19903;SDS011;10114;50.970;4.962;2023-07-13T02:16:24;8.68;;;2.15;;
19903;SDS011;10114;50.970;4.962;2023-07-13T02:18:50;7.18;;;2.05;;
19903;SDS011;10114;50.970;4.962;2023-07-13T02:21:17;7.07;;;1.90;;
19903;SDS011;10114;50.970;4.962;2023-07-13T02:23:43;6.88;;;1.80;;
19903;SDS011;10114;50.970;4.962;2023-07-13T02:26:09;11.93;;;2.50;;
19903;SDS011;10114;50.970;4.962;2023-07-13T02:28:35;7.45;;;1.80;;
19903;SDS011;10114;50.970;4.962;2023-07-13T02:31:09;5.15;;;1.98;;
19903;SDS011;10114;50.970;4.962;2023-07-13T02:33:35;12.75;;;2.33;;
19903;SDS011;10114;50.970;4.962;2023-07-13T02:36:01;9.57;;;2.10;;
19903;SDS011;10114;50.970;4.962;2023-07-13T02:38:28;8.93;;;2.40;;
19903;SDS011;10114;50.970;4.962;2023-07-13T02:40:54;12.07;;;2.20;;
19903;SDS011;10114;50.970;4.962;2023-07-13T02:43:21;12.45;;;2.50;;
19903;SDS011;10114;50.970;4.962;2023-07-13T02:45:47;11.85;;;2.60;;
19903;SDS011;10114;50.970;4.962;2023-07-13T02:48:13;13.75;;;2.67;;
19903;SDS011;10114;50.970;4.962;2023-07-13T02:50:40;11.00;;;1.98;;
19903;SDS011;10114;50.970;4.962;2023-07-13T02:53:06;13.10;;;2.45;;
19903;SDS011;10114;50.970;4.962;2023-07-13T02:55:32;9.10;;;1.98;;
19903;SDS011;10114;50.970;4.962;2023-07-13T02:57:58;9.95;;;1.90;;
19903;SDS011;10114;50.970;4.962;2023-07-13T03:00:24;10.05;;;2.90;;
19903;SDS011;10114;50.970;4.962;2023-07-13T03:02:50;10.60;;;2.33;;
19903;SDS011;10114;50.970;4.962;2023-07-13T03:05:16;8.00;;;2.35;;
19903;SDS011;10114;50.970;4.962;2023-07-13T03:07:42;11.95;;;2.58;;
19903;SDS011;10114;50.970;4.962;2023-07-13T03:10:09;11.07;;;2.33;;
19903;SDS011;10114;50.970;4.962;2023-07-13T03:12:35;10.77;;;2.30;;
19903;SDS011;10114;50.970;4.962;2023-07-13T03:15:01;14.02;;;3.45;;
19903;SDS011;10114;50.970;4.962;2023-07-13T03:17:27;8.57;;;2.10;;
19903;SDS011;10114;50.970;4.962;2023-07-13T03:19:53;7.63;;;1.80;;
19903;SDS011;10114;50.970;4.962;2023-07-13T03:22:19;7.20;;;2.17;;
19903;SDS011;10114;50.970;4.962;2023-07-13T03:24:45;9.65;;;2.35;;
19903;SDS011;10114;50.970;4.962;2023-07-13T03:27:11;15.07;;;2.72;;
19903;SDS011;10114;50.970;4.962;2023-07-13T03:29:37;9.57;;;2.35;;
19903;SDS011;10114;50.970;4.962;2023-07-13T03:32:03;12.50;;;2.40;;
19903;SDS011;10114;50.970;4.962;2023-07-13T03:34:30;10.13;;;2.00;;
19903;SDS011;10114;50.970;4.962;2023-07-13T03:36:56;7.93;;;2.10;;
19903;SDS011;10114;50.970;4.962;2023-07-13T03:39:22;13.57;;;2.97;;
19903;SDS011;10114;50.970;4.962;2023-07-13T03:41:48;8.68;;;2.10;;
19903;SDS011;10114;50.970;4.962;2023-07-13T03:44:15;12.32;;;2.10;;
19903;SDS011;10114;50.970;4.962;2023-07-13T03:46:42;9.35;;;2.20;;
19903;SDS011;10114;50.970;4.962;2023-07-13T03:49:08;11.05;;;2.58;;
19903;SDS011;10114;50.970;4.962;2023-07-13T03:51:34;8.68;;;2.17;;
19903;SDS011;10114;50.970;4.962;2023-07-13T03:54:00;8.77;;;2.20;;
19903;SDS011;10114;50.970;4.962;2023-07-13T03:56:27;6.38;;;2.50;;
19903;SDS011;10114;50.970;4.962;2023-07-13T03:58:55;11.65;;;2.83;;
19903;SDS011;10114;50.970;4.962;2023-07-13T04:01:21;11.30;;;2.58;;
19903;SDS011;10114;50.970;4.962;2023-07-13T04:03:48;15.35;;;3.10;;
19903;SDS011;10114;50.970;4.962;2023-07-13T04:06:18;10.95;;;2.63;;
19903;SDS011;10114;50.970;4.962;2023-07-13T04:08:50;9.73;;;2.10;;
19903;SDS011;10114;50.970;4.962;2023-07-13T04:11:17;11.98;;;2.55;;
19903;SDS011;10114;50.970;4.962;2023-07-13T04:13:43;7.88;;;2.17;;
19903;SDS011;10114;50.970;4.962;2023-07-13T04:16:09;13.95;;;2.08;;
19903;SDS011;10114;50.970;4.962;2023-07-13T04:18:36;8.18;;;2.50;;
19903;SDS011;10114;50.970;4.962;2023-07-13T04:21:02;8.07;;;2.20;;
19903;SDS011;10114;50.970;4.962;2023-07-13T04:23:29;9.63;;;2.42;;
19903;SDS011;10114;50.970;4.962;2023-07-13T04:25:55;14.65;;;2.45;;
19903;SDS011;10114;50.970;4.962;2023-07-13T04:28:22;9.50;;;2.28;;
19903;SDS011;10114;50.970;4.962;2023-07-13T04:30:48;9.98;;;2.20;;
19903;SDS011;10114;50.970;4.962;2023-07-13T04:33:15;11.02;;;2.38;;
19903;SDS011;10114;50.970;4.962;2023-07-13T04:35:47;11.23;;;2.20;;
19903;SDS011;10114;50.970;4.962;2023-07-13T04:38:13;12.32;;;2.53;;
19903;SDS011;10114;50.970;4.962;2023-07-13T04:40:42;13.52;;;2.40;;
19903;SDS011;10114;50.970;4.962;2023-07-13T04:43:08;11.00;;;2.20;;
19903;SDS011;10114;50.970;4.962;2023-07-13T04:45:34;13.77;;;2.15;;
19903;SDS011;10114;50.970;4.962;2023-07-13T04:48:00;6.82;;;2.13;;
19903;SDS011;10114;50.970;4.962;2023-07-13T04:50:26;8.50;;;2.20;;
19903;SDS011;10114;50.970;4.962;2023-07-13T04:52:52;10.80;;;2.50;;
19903;SDS011;10114;50.970;4.962;2023-07-13T04:55:19;14.50;;;2.97;;
19903;SDS011;10114;50.970;4.962;2023-07-13T04:57:45;9.50;;;2.50;;
19903;SDS011;10114;50.970;4.962;2023-07-13T05:00:11;18.25;;;2.75;;
19903;SDS011;10114;50.970;4.962;2023-07-13T05:02:38;16.33;;;2.60;;
19903;SDS011;10114;50.970;4.962;2023-07-13T05:05:05;8.45;;;2.22;;
19903;SDS011;10114;50.970;4.962;2023-07-13T05:07:31;13.05;;;2.67;;
19903;SDS011;10114;50.970;4.962;2023-07-13T05:09:58;12.52;;;2.60;;
19903;SDS011;10114;50.970;4.962;2023-07-13T05:12:25;13.68;;;2.45;;
19903;SDS011;10114;50.970;4.962;2023-07-13T05:14:51;18.63;;;2.55;;
19903;SDS011;10114;50.970;4.962;2023-07-13T05:17:17;11.32;;;2.95;;
19903;SDS011;10114;50.970;4.962;2023-07-13T05:19:43;12.88;;;2.85;;
19903;SDS011;10114;50.970;4.962;2023-07-13T05:22:09;16.20;;;3.00;;
19903;SDS011;10114;50.970;4.962;2023-07-13T05:24:35;12.95;;;2.15;;
19903;SDS011;10114;50.970;4.962;2023-07-13T05:27:01;14.95;;;2.83;;
19903;SDS011;10114;50.970;4.962;2023-07-13T05:29:27;10.50;;;2.53;;
19903;SDS011;10114;50.970;4.962;2023-07-13T05:31:53;10.35;;;2.83;;
19903;SDS011;10114;50.970;4.962;2023-07-13T05:34:19;14.85;;;2.90;;
19903;SDS011;10114;50.970;4.962;2023-07-13T05:36:45;17.33;;;2.78;;
19903;SDS011;10114;50.970;4.962;2023-07-13T05:39:11;12.27;;;2.55;;
19903;SDS011;10114;50.970;4.962;2023-07-13T05:41:37;7.45;;;2.03;;
19903;SDS011;10114;50.970;4.962;2023-07-13T05:44:03;10.35;;;2.58;;
19903;SDS011;10114;50.970;4.962;2023-07-13T05:46:29;14.82;;;2.60;;
19903;SDS011;10114;50.970;4.962;2023-07-13T05:48:56;9.27;;;2.30;;
19903;SDS011;10114;50.970;4.962;2023-07-13T05:51:22;20.13;;;2.83;;
19903;SDS011;10114;50.970;4.962;2023-07-13T05:53:48;13.13;;;3.05;;
19903;SDS011;10114;50.970;4.962;2023-07-13T05:56:14;14.32;;;2.75;;
19903;SDS011;10114;50.970;4.962;2023-07-13T05:58:40;19.10;;;3.53;;
19903;SDS011;10114;50.970;4.962;2023-07-13T06:01:08;12.65;;;3.03;;
19903;SDS011;10114;50.970;4.962;2023-07-13T06:03:36;8.43;;;2.53;;
19903;SDS011;10114;50.970;4.962;2023-07-13T06:06:05;15.07;;;3.25;;
19903;SDS011;10114;50.970;4.962;2023-07-13T06:08:31;12.70;;;2.75;;
19903;SDS011;10114;50.970;4.962;2023-07-13T06:11:07;9.50;;;2.33;;
19903;SDS011;10114;50.970;4.962;2023-07-13T06:13:33;15.63;;;2.22;;
19903;SDS011;10114;50.970;4.962;2023-07-13T06:16:00;13.95;;;2.70;;
19903;SDS011;10114;50.970;4.962;2023-07-13T06:18:29;13.63;;;3.15;;
19903;SDS011;10114;50.970;4.962;2023-07-13T06:20:55;14.52;;;3.22;;
19903;SDS011;10114;50.970;4.962;2023-07-13T06:23:21;14.05;;;3.00;;
19903;SDS011;10114;50.970;4.962;2023-07-13T06:25:47;11.80;;;2.50;;
19903;SDS011;10114;50.970;4.962;2023-07-13T06:28:13;11.40;;;2.63;;
19903;SDS011;10114;50.970;4.962;2023-07-13T06:30:39;16.35;;;2.65;;
19903;SDS011;10114;50.970;4.962;2023-07-13T06:33:05;16.80;;;3.58;;
19903;SDS011;10114;50.970;4.962;2023-07-13T06:35:31;17.52;;;4.72;;
19903;SDS011;10114;50.970;4.962;2023-07-13T06:37:58;11.88;;;3.03;;
19903;SDS011;10114;50.970;4.962;2023-07-13T06:40:24;15.10;;;4.03;;
19903;SDS011;10114;50.970;4.962;2023-07-13T06:42:50;14.30;;;2.90;;
19903;SDS011;10114;50.970;4.962;2023-07-13T06:45:16;15.80;;;3.63;;
19903;SDS011;10114;50.970;4.962;2023-07-13T06:47:42;13.05;;;2.95;;
19903;SDS011;10114;50.970;4.962;2023-07-13T06:50:08;15.95;;;3.83;;
19903;SDS011;10114;50.970;4.962;2023-07-13T06:52:35;12.82;;;2.95;;
19903;SDS011;10114;50.970;4.962;2023-07-13T06:55:01;15.35;;;3.03;;
19903;SDS011;10114;50.970;4.962;2023-07-13T06:57:26;11.70;;;3.00;;
19903;SDS011;10114;50.970;4.962;2023-07-13T06:59:52;13.15;;;2.92;;
19903;SDS011;10114;50.970;4.962;2023-07-13T07:02:18;14.60;;;3.58;;
19903;SDS011;10114;50.970;4.962;2023-07-13T07:04:44;20.73;;;3.60;;
19903;SDS011;10114;50.970;4.962;2023-07-13T07:07:10;17.08;;;2.83;;
19903;SDS011;10114;50.970;4.962;2023-07-13T07:09:36;11.88;;;3.00;;
19903;SDS011;10114;50.970;4.962;2023-07-13T07:12:03;14.18;;;3.20;;
19903;SDS011;10114;50.970;4.962;2023-07-13T07:14:29;10.32;;;2.90;;
19903;SDS011;10114;50.970;4.962;2023-07-13T07:16:55;9.93;;;2.47;;
19903;SDS011;10114;50.970;4.962;2023-07-13T07:19:23;14.13;;;3.17;;
19903;SDS011;10114;50.970;4.962;2023-07-13T07:21:49;16.17;;;3.05;;
19903;SDS011;10114;50.970;4.962;2023-07-13T07:24:15;10.57;;;3.15;;
19903;SDS011;10114;50.970;4.962;2023-07-13T07:26:41;10.20;;;2.50;;
19903;SDS011;10114;50.970;4.962;2023-07-13T07:29:07;18.23;;;3.33;;
19903;SDS011;10114;50.970;4.962;2023-07-13T07:31:33;17.00;;;3.22;;
19903;SDS011;10114;50.970;4.962;2023-07-13T07:33:59;14.25;;;2.83;;
19903;SDS011;10114;50.970;4.962;2023-07-13T07:36:25;12.57;;;3.38;;
19903;SDS011;10114;50.970;4.962;2023-07-13T07:38:52;12.68;;;3.00;;
19903;SDS011;10114;50.970;4.962;2023-07-13T07:41:18;14.68;;;2.80;;
19903;SDS011;10114;50.970;4.962;2023-07-13T07:43:44;12.27;;;2.70;;
19903;SDS011;10114;50.970;4.962;2023-07-13T07:46:11;13.07;;;2.60;;
19903;SDS011;10114;50.970;4.962;2023-07-13T07:48:36;14.60;;;2.92;;
19903;SDS011;10114;50.970;4.962;2023-07-13T07:51:02;10.23;;;2.60;;
19903;SDS011;10114;50.970;4.962;2023-07-13T07:53:28;13.40;;;2.80;;
19903;SDS011;10114;50.970;4.962;2023-07-13T07:55:55;10.93;;;2.25;;
19903;SDS011;10114;50.970;4.962;2023-07-13T07:58:21;14.43;;;2.65;;
19903;SDS011;10114;50.970;4.962;2023-07-13T08:00:47;9.63;;;2.38;;
19903;SDS011;10114;50.970;4.962;2023-07-13T08:03:13;14.40;;;2.72;;
19903;SDS011;10114;50.970;4.962;2023-07-13T08:05:39;11.70;;;2.83;;
19903;SDS011;10114;50.970;4.962;2023-07-13T08:08:05;11.57;;;2.60;;
19903;SDS011;10114;50.970;4.962;2023-07-13T08:10:31;10.70;;;2.28;;
19903;SDS011;10114;50.970;4.962;2023-07-13T08:12:57;15.85;;;2.47;;
19903;SDS011;10114;50.970;4.962;2023-07-13T08:15:23;12.60;;;2.60;;
19903;SDS011;10114;50.970;4.962;2023-07-13T08:17:49;10.40;;;2.90;;
19903;SDS011;10114;50.970;4.962;2023-07-13T08:20:15;9.75;;;2.65;;
19903;SDS011;10114;50.970;4.962;2023-07-13T08:22:41;13.15;;;2.53;;
19903;SDS011;10114;50.970;4.962;2023-07-13T08:25:07;12.95;;;2.30;;
19903;SDS011;10114;50.970;4.962;2023-07-13T08:27:33;16.10;;;3.20;;
19903;SDS011;10114;50.970;4.962;2023-07-13T08:29:59;8.15;;;1.77;;
19903;SDS011;10114;50.970;4.962;2023-07-13T08:32:25;7.47;;;2.00;;
19903;SDS011;10114;50.970;4.962;2023-07-13T08:34:51;10.38;;;2.47;;
19903;SDS011;10114;50.970;4.962;2023-07-13T08:37:17;11.77;;;2.70;;
19903;SDS011;10114;50.970;4.962;2023-07-13T08:39:44;13.45;;;2.80;;
19903;SDS011;10114;50.970;4.962;2023-07-13T08:42:16;11.90;;;2.55;;
19903;SDS011;10114;50.970;4.962;2023-07-13T08:47:30;10.82;;;2.63;;
19903;SDS011;10114;50.970;4.962;2023-07-13T08:49:57;11.70;;;2.28;;
19903;SDS011;10114;50.970;4.962;2023-07-13T08:52:34;10.35;;;2.10;;
19903;SDS011;10114;50.970;4.962;2023-07-13T08:55:08;10.13;;;2.38;;
19903;SDS011;10114;50.970;4.962;2023-07-13T08:57:37;10.82;;;2.28;;
19903;SDS011;10114;50.970;4.962;2023-07-13T09:00:04;9.73;;;2.15;;
19903;SDS011;10114;50.970;4.962;2023-07-13T09:02:36;8.77;;;2.28;;
19903;SDS011;10114;50.970;4.962;2023-07-13T09:05:15;8.68;;;2.03;;
19903;SDS011;10114;50.970;4.962;2023-07-13T09:10:28;22.35;;;3.15;;
19903;SDS011;10114;50.970;4.962;2023-07-13T09:15:31;7.13;;;1.90;;
19903;SDS011;10114;50.970;4.962;2023-07-13T09:18:22;11.07;;;2.00;;
19903;SDS011;10114;50.970;4.962;2023-07-13T09:20:45;8.18;;;1.85;;
19903;SDS011;10114;50.970;4.962;2023-07-13T09:23:16;8.23;;;2.25;;
19903;SDS011;10114;50.970;4.962;2023-07-13T09:25:43;10.55;;;1.90;;
19903;SDS011;10114;50.970;4.962;2023-07-13T09:30:38;7.85;;;2.38;;
19903;SDS011;10114;50.970;4.962;2023-07-13T09:33:06;6.78;;;2.00;;
19903;SDS011;10114;50.970;4.962;2023-07-13T09:35:34;7.95;;;1.88;;
19903;SDS011;10114;50.970;4.962;2023-07-13T09:38:19;10.90;;;2.00;;
19903;SDS011;10114;50.970;4.962;2023-07-13T09:43:14;9.10;;;1.85;;
19903;SDS011;10114;50.970;4.962;2023-07-13T09:45:41;8.25;;;2.03;;
19903;SDS011;10114;50.970;4.962;2023-07-13T09:48:11;7.18;;;1.92;;
19903;SDS011;10114;50.970;4.962;2023-07-13T09:50:38;7.28;;;1.90;;
19903;SDS011;10114;50.970;4.962;2023-07-13T09:53:04;7.97;;;2.00;;
19903;SDS011;10114;50.970;4.962;2023-07-13T09:55:40;8.13;;;1.65;;
19903;SDS011;10114;50.970;4.962;2023-07-13T09:58:09;7.57;;;1.63;;
19903;SDS011;10114;50.970;4.962;2023-07-13T10:00:36;7.43;;;1.52;;
19903;SDS011;10114;50.970;4.962;2023-07-13T10:03:09;10.05;;;1.48;;
19903;SDS011;10114;50.970;4.962;2023-07-13T10:05:41;6.88;;;2.00;;
19903;SDS011;10114;50.970;4.962;2023-07-13T10:08:17;6.88;;;1.30;;
19903;SDS011;10114;50.970;4.962;2023-07-13T10:10:44;8.05;;;1.75;;
19903;SDS011;10114;50.970;4.962;2023-07-13T10:13:26;12.77;;;2.00;;
19903;SDS011;10114;50.970;4.962;2023-07-13T10:15:53;5.15;;;1.15;;
19903;SDS011;10114;50.970;4.962;2023-07-13T10:18:20;6.20;;;1.65;;
19903;SDS011;10114;50.970;4.962;2023-07-13T10:20:46;7.72;;;1.70;;
19903;SDS011;10114;50.970;4.962;2023-07-13T10:23:18;6.45;;;1.70;;
19903;SDS011;10114;50.970;4.962;2023-07-13T10:25:47;8.15;;;1.58;;
19903;SDS011;10114;50.970;4.962;2023-07-13T10:30:48;7.55;;;1.30;;
19903;SDS011;10114;50.970;4.962;2023-07-13T10:33:15;9.15;;;1.77;;
19903;SDS011;10114;50.970;4.962;2023-07-13T10:35:42;6.68;;;1.77;;
19903;SDS011;10114;50.970;4.962;2023-07-13T10:38:19;7.90;;;1.52;;
19903;SDS011;10114;50.970;4.962;2023-07-13T10:40:58;6.43;;;1.25;;
19903;SDS011;10114;50.970;4.962;2023-07-13T10:43:35;6.07;;;1.50;;
19903;SDS011;10114;50.970;4.962;2023-07-13T10:46:03;7.50;;;1.50;;
19903;SDS011;10114;50.970;4.962;2023-07-13T10:48:30;6.70;;;1.65;;
19903;SDS011;10114;50.970;4.962;2023-07-13T10:50:59;7.25;;;1.67;;
19903;SDS011;10114;50.970;4.962;2023-07-13T10:53:30;4.40;;;1.40;;
19903;SDS011;10114;50.970;4.962;2023-07-13T10:56:00;4.80;;;1.30;;
19903;SDS011;10114;50.970;4.962;2023-07-13T10:58:34;4.70;;;1.30;;
19903;SDS011;10114;50.970;4.962;2023-07-13T11:03:28;6.88;;;1.45;;
19903;SDS011;10114;50.970;4.962;2023-07-13T11:06:16;5.20;;;1.25;;
19903;SDS011;10114;50.970;4.962;2023-07-13T11:18:47;9.10;;;1.50;;
19903;SDS011;10114;50.970;4.962;2023-07-13T11:21:15;5.30;;;1.40;;
19903;SDS011;10114;50.970;4.962;2023-07-13T11:23:42;7.95;;;1.60;;
19903;SDS011;10114;50.970;4.962;2023-07-13T11:28:54;8.35;;;1.65;;
19903;SDS011;10114;50.970;4.962;2023-07-13T11:31:20;6.03;;;1.50;;
19903;SDS011;10114;50.970;4.962;2023-07-13T11:36:15;6.68;;;1.30;;
19903;SDS011;10114;50.970;4.962;2023-07-13T11:38:43;6.32;;;1.50;;
19903;SDS011;10114;50.970;4.962;2023-07-13T11:41:19;8.60;;;1.15;;
19903;SDS011;10114;50.970;4.962;2023-07-13T11:43:50;8.48;;;1.50;;
19903;SDS011;10114;50.970;4.962;2023-07-13T11:46:24;4.20;;;1.10;;
19903;SDS011;10114;50.970;4.962;2023-07-13T11:48:50;5.35;;;1.33;;
19903;SDS011;10114;50.970;4.962;2023-07-13T11:51:38;5.30;;;1.65;;
19903;SDS011;10114;50.970;4.962;2023-07-13T11:54:10;3.92;;;1.15;;
19903;SDS011;10114;50.970;4.962;2023-07-13T11:56:40;6.70;;;1.40;;
19903;SDS011;10114;50.970;4.962;2023-07-13T11:59:07;5.85;;;1.38;;
19903;SDS011;10114;50.970;4.962;2023-07-13T12:01:33;4.43;;;1.20;;
19903;SDS011;10114;50.970;4.962;2023-07-13T12:04:00;3.53;;;1.30;;
19903;SDS011;10114;50.970;4.962;2023-07-13T12:06:29;8.80;;;1.60;;
19903;SDS011;10114;50.970;4.962;2023-07-13T12:08:56;5.95;;;1.45;;
19903;SDS011;10114;50.970;4.962;2023-07-13T12:11:23;4.05;;;1.20;;
19903;SDS011;10114;50.970;4.962;2023-07-13T12:13:49;5.15;;;1.33;;
19903;SDS011;10114;50.970;4.962;2023-07-13T12:18:53;4.55;;;1.10;;
19903;SDS011;10114;50.970;4.962;2023-07-13T12:21:21;6.63;;;1.45;;
19903;SDS011;10114;50.970;4.962;2023-07-13T12:23:48;6.53;;;1.40;;
19903;SDS011;10114;50.970;4.962;2023-07-13T12:26:14;5.45;;;1.25;;
19903;SDS011;10114;50.970;4.962;2023-07-13T12:28:48;6.53;;;1.30;;
19903;SDS011;10114;50.970;4.962;2023-07-13T12:33:56;4.32;;;1.60;;
19903;SDS011;10114;50.970;4.962;2023-07-13T12:36:23;7.78;;;1.15;;
19903;SDS011;10114;50.970;4.962;2023-07-13T12:38:49;5.97;;;1.25;;
19903;SDS011;10114;50.970;4.962;2023-07-13T12:41:16;4.82;;;1.17;;
19903;SDS011;10114;50.970;4.962;2023-07-13T12:43:42;7.10;;;1.75;;
19903;SDS011;10114;50.970;4.962;2023-07-13T12:46:18;6.00;;;1.85;;
19903;SDS011;10114;50.970;4.962;2023-07-13T12:48:47;7.15;;;1.77;;
19903;SDS011;10114;50.970;4.962;2023-07-13T12:51:14;4.95;;;1.67;;
19903;SDS011;10114;50.970;4.962;2023-07-13T12:53:51;6.72;;;2.22;;
19903;SDS011;10114;50.970;4.962;2023-07-13T12:56:21;7.70;;;2.75;;
19903;SDS011;10114;50.970;4.962;2023-07-13T12:58:48;4.20;;;2.38;;
19903;SDS011;10114;50.970;4.962;2023-07-13T13:01:19;7.93;;;2.50;;
19903;SDS011;10114;50.970;4.962;2023-07-13T13:03:48;7.30;;;2.50;;
19903;SDS011;10114;50.970;4.962;2023-07-13T13:08:47;8.23;;;2.83;;
19903;SDS011;10114;50.970;4.962;2023-07-13T13:11:14;7.75;;;2.78;;
19903;SDS011;10114;50.970;4.962;2023-07-13T13:13:41;8.82;;;2.70;;
19903;SDS011;10114;50.970;4.962;2023-07-13T13:18:43;6.60;;;2.17;;
19903;SDS011;10114;50.970;4.962;2023-07-13T13:21:09;5.70;;;2.00;;
19903;SDS011;10114;50.970;4.962;2023-07-13T13:23:36;6.47;;;1.80;;
19903;SDS011;10114;50.970;4.962;2023-07-13T13:26:02;7.85;;;2.10;;
19903;SDS011;10114;50.970;4.962;2023-07-13T13:28:28;7.88;;;2.40;;
19903;SDS011;10114;50.970;4.962;2023-07-13T13:30:54;4.95;;;2.35;;
19903;SDS011;10114;50.970;4.962;2023-07-13T13:33:21;6.45;;;1.92;;
19903;SDS011;10114;50.970;4.962;2023-07-13T13:35:47;3.47;;;1.70;;
19903;SDS011;10114;50.970;4.962;2023-07-13T13:38:14;4.97;;;1.52;;
19903;SDS011;10114;50.970;4.962;2023-07-13T13:40:41;5.53;;;1.70;;
19903;SDS011;10114;50.970;4.962;2023-07-13T13:43:14;8.73;;;1.95;;
19903;SDS011;10114;50.970;4.962;2023-07-13T13:45:41;7.18;;;2.45;;
19903;SDS011;10114;50.970;4.962;2023-07-13T13:48:12;6.55;;;2.22;;
19903;SDS011;10114;50.970;4.962;2023-07-13T13:50:39;4.72;;;1.90;;
19903;SDS011;10114;50.970;4.962;2023-07-13T13:53:08;7.00;;;2.22;;
19903;SDS011;10114;50.970;4.962;2023-07-13T13:55:34;7.10;;;1.80;;
19903;SDS011;10114;50.970;4.962;2023-07-13T13:58:00;6.43;;;1.90;;
19903;SDS011;10114;50.970;4.962;2023-07-13T14:00:26;6.10;;;1.85;;
19903;SDS011;10114;50.970;4.962;2023-07-13T14:02:52;5.40;;;1.67;;
19903;SDS011;10114;50.970;4.962;2023-07-13T14:05:23;6.40;;;1.55;;
19903;SDS011;10114;50.970;4.962;2023-07-13T14:07:51;5.07;;;1.20;;
19903;SDS011;10114;50.970;4.962;2023-07-13T14:10:18;5.53;;;1.90;;
19903;SDS011;10114;50.970;4.962;2023-07-13T14:12:44;4.93;;;2.05;;
19903;SDS011;10114;50.970;4.962;2023-07-13T14:17:47;4.93;;;1.75;;
19903;SDS011;10114;50.970;4.962;2023-07-13T14:20:16;5.85;;;1.83;;
19903;SDS011;10114;50.970;4.962;2023-07-13T14:22:43;5.50;;;1.30;;
19903;SDS011;10114;50.970;4.962;2023-07-13T14:25:13;5.32;;;1.70;;
19903;SDS011;10114;50.970;4.962;2023-07-13T14:27:40;4.80;;;1.60;;
19903;SDS011;10114;50.970;4.962;2023-07-13T14:30:15;5.80;;;1.75;;
19903;SDS011;10114;50.970;4.962;2023-07-13T14:32:42;6.75;;;1.60;;
19903;SDS011;10114;50.970;4.962;2023-07-13T14:35:12;5.50;;;1.80;;
19903;SDS011;10114;50.970;4.962;2023-07-13T14:37:42;8.27;;;1.58;;
19903;SDS011;10114;50.970;4.962;2023-07-13T14:40:15;5.72;;;1.85;;
19903;SDS011;10114;50.970;4.962;2023-07-13T14:42:42;5.78;;;1.55;;
19903;SDS011;10114;50.970;4.962;2023-07-13T14:45:12;4.65;;;1.40;;
19903;SDS011;10114;50.970;4.962;2023-07-13T14:47:39;3.47;;;1.50;;
19903;SDS011;10114;50.970;4.962;2023-07-13T14:50:05;4.32;;;1.38;;
19903;SDS011;10114;50.970;4.962;2023-07-13T14:52:34;5.32;;;1.30;;
19903;SDS011;10114;50.970;4.962;2023-07-13T14:55:00;4.22;;;1.38;;
19903;SDS011;10114;50.970;4.962;2023-07-13T14:57:26;4.97;;;1.50;;
19903;SDS011;10114;50.970;4.962;2023-07-13T14:59:52;5.07;;;1.20;;
19903;SDS011;10114;50.970;4.962;2023-07-13T15:04:47;6.00;;;1.42;;
19903;SDS011;10114;50.970;4.962;2023-07-13T15:07:13;5.45;;;1.42;;
19903;SDS011;10114;50.970;4.962;2023-07-13T15:09:40;3.85;;;1.23;;
19903;SDS011;10114;50.970;4.962;2023-07-13T15:12:07;3.70;;;1.45;;
19903;SDS011;10114;50.970;4.962;2023-07-13T15:14:33;5.25;;;1.48;;
19903;SDS011;10114;50.970;4.962;2023-07-13T15:16:59;5.57;;;1.40;;
19903;SDS011;10114;50.970;4.962;2023-07-13T15:19:25;5.03;;;1.27;;
19903;SDS011;10114;50.970;4.962;2023-07-13T15:21:52;6.10;;;1.30;;
19903;SDS011;10114;50.970;4.962;2023-07-13T15:24:19;6.05;;;1.60;;
19903;SDS011;10114;50.970;4.962;2023-07-13T15:26:45;4.47;;;1.50;;
19903;SDS011;10114;50.970;4.962;2023-07-13T15:29:14;5.10;;;1.48;;
19903;SDS011;10114;50.970;4.962;2023-07-13T15:31:40;6.53;;;1.42;;
19903;SDS011;10114;50.970;4.962;2023-07-13T15:34:13;3.47;;;1.20;;
19903;SDS011;10114;50.970;4.962;2023-07-13T15:36:40;6.82;;;1.80;;